• Join FlightAware (Why Join?)
  • Login
  • US Flag 
11:47PM EDT


 

Airport Tracker/Info


-or-


 

Live Flight TrackerFlight Track Log ✈ SKW6228 ✈ 08-May-2013 ✈ KDEN - KBOI

Flight Track Log - Related Links

Times and Time Zones

All times are in EDT time to prevent confusion due to time zone crossing. See the SKW6228 flight status page for this flight to view local times or setup timezone preferences in your user account.

Time Position Orientation Groundspeed Altitude Reporting Facility
EDT Latitude Longitude Course Direction KTS MPH feet Rate Location/Type
11:16AM 39.8833 -104.8333 277° West 244 281 9,000  Level Denver TRACON
11:17AM 39.9161 -104.8742 316° Northwest 241 277 10,700 2,640 Climbing Denver Center
11:18AM 39.9050 -105.3033 288° West  Level FlightAware Approximate
11:18AM 39.9550 -104.9514 303° West 254 292 13,600  Level Denver Center
11:19AM 39.9268 -105.4607 277° West  Level FlightAware Approximate
11:19AM 39.9994 -105.0350 305° West 260 299 15,700  Level Denver Center
11:20AM 39.9333 -105.6208 270° West  Level FlightAware Approximate
11:20AM 40.0400 -105.1208 302° West 275 316 17,400  Level Denver Center
11:21AM 39.9380 -105.7677 277° West  Level FlightAware Approximate
11:21AM 40.0861 -105.2269 300° West 319 367 18,600  Level Denver Center
11:22AM 40.1281 -105.3397 296° West 344 396 20,200 1,560 Climbing Denver Center
11:23AM 40.1686 -105.4594 294° West 361 415 21,900 1,560 Climbing Denver Center
11:24AM 40.2158 -105.5931 295° West 370 426 23,500 1,200 Climbing Denver Center
11:25AM 40.2522 -105.7050 293° West 368 423 24,400 960 Climbing Denver Center
11:26AM 40.2564 -105.8486 272° West 404 465 25,600 1,140 Climbing Denver Center
11:27AM 40.2378 -105.9906 260° West 395 455 26,800 1,080 Climbing Denver Center
11:28AM 40.2367 -106.1769 270° West 406 467 27,900 540 Climbing Denver Center
11:29AM 40.2356 -106.3228 269° West 416 479 28,000  Climbing Denver Center
11:30AM 40.2331 -106.4800 269° West 447 514 28,000  Level Denver Center
11:31AM 40.2417 -106.6497 274° West 453 521 28,000  Level Denver Center
11:32AM 40.2558 -106.8128 277° West 455 524 28,000  Level Denver Center
11:33AM 40.3239 -106.9808 298° West 453 521 28,100 480 Climbing Denver Center
11:34AM 40.3822 -107.1208 299° West 457 526 29,100 960 Climbing Denver Center
11:35AM 40.4492 -107.2836 298° West 455 524 30,200 1,020 Climbing Denver Center
11:36AM 40.5050 -107.4214 298° West 449 517 31,300 840 Climbing Denver Center
11:37AM 40.5683 -107.5783 298° West 439 505 32,000 300 Climbing Denver Center
11:38AM 40.6233 -107.7158 298° West 442 509 32,000  Level Denver Center
11:39AM 40.6686 -107.8306 298° West 443 510 32,000  Level Denver Center
11:40AM 40.7464 -108.0247 298° West 430 495 32,000  Level Denver Center
11:41AM 40.7981 -108.1564 297° West 424 488 32,000  Level Denver Center
11:43AM 40.8497 -108.2872 298° West 421 484 32,000  Level Denver Center
11:43AM 40.8839 -108.3772 297° West 424 488 32,000  Level Salt Lake Center
11:44AM 40.9361 -108.5108 297° West 426 490 32,000  Level Salt Lake Center
11:45AM 40.9969 -108.6678 297° West 430 495 32,000  Level Salt Lake Center
11:46AM 41.0492 -108.8028 297° West 431 496 32,000  Level Salt Lake Center
11:47AM 41.1111 -108.9631 297° West 435 501 32,000  Level Salt Lake Center
11:48AM 41.1636 -109.1011 297° West 436 502 32,000  Level Salt Lake Center
11:49AM 41.2164 -109.2408 297° West 438 504 32,000  Level Salt Lake Center
11:50AM 41.2786 -109.4056 297° West 442 509 32,000  Level Salt Lake Center
11:51AM 41.3314 -109.5469 296° West 443 510 32,000  Level Salt Lake Center
11:52AM 41.3939 -109.7122 297° West 447 514 32,000  Level Salt Lake Center
11:53AM 41.4467 -109.8542 296° West 447 514 32,000  Level Salt Lake Center
11:54AM 41.5075 -110.0197 296° West 446 513 32,000  Level Salt Lake Center
11:55AM 41.5597 -110.1606 296° West 444 511 32,000  Level Salt Lake Center
11:56AM 41.6200 -110.3233 296° West 440 506 32,000  Level Salt Lake Center
11:58AM 41.6719 -110.4625 297° West 439 505 32,000  Level Salt Lake Center
11:59AM 41.7294 -110.6247 295° West 433 498 32,000  Level Salt Lake Center
12:00PM 41.7800 -110.7622 296° West 431 496 32,000  Level Salt Lake Center
12:01PM 41.8372 -110.9231 296° West 429 494 32,000  Level Salt Lake Center
12:02PM 41.8922 -111.0769 296° West 434 499 32,000  Level Salt Lake Center
12:03PM 41.9431 -111.2203 296° West 429 494 32,000  Level Salt Lake Center
12:04PM 41.9950 -111.3658 296° West 433 498 32,000  Level Salt Lake Center
12:05PM 42.0456 -111.5108 295° West 432 497 32,000  Level Salt Lake Center
12:06PM 42.0964 -111.6550 295° West 429 494 32,000  Level Salt Lake Center
12:07PM 42.1481 -111.8006 296° West 432 497 32,000  Level Salt Lake Center
12:08PM 42.2081 -111.9758 295° West 432 497 32,000  Level Salt Lake Center
12:09PM 42.2581 -112.1219 295° West 433 498 32,000  Level Salt Lake Center
12:10PM 42.3083 -112.2681 295° West 432 497 32,000  Level Salt Lake Center
12:11PM 42.3581 -112.4147 295° West 432 497 32,000  Level Salt Lake Center
12:12PM 42.4086 -112.5614 295° West 434 499 32,000  Level Salt Lake Center
12:13PM 42.4575 -112.7081 294° West 430 495 32,000  Level Salt Lake Center
12:14PM 42.5167 -112.8839 295° West 428 493 32,000  Level Salt Lake Center
12:15PM 42.5658 -113.0311 294° West 429 494 32,000  Level Salt Lake Center
12:16PM 42.6139 -113.1778 294° West 427 491 32,000  Level Salt Lake Center
12:17PM 42.6622 -113.3247 294° West 429 494 32,000  Level Salt Lake Center
12:18PM 42.7158 -113.4853 294° West 429 494 32,000  Level Salt Lake Center
12:19PM 42.7622 -113.6272 294° West 430 495 32,000  Level Salt Lake Center
12:20PM 42.8164 -113.7919 294° West 427 491 32,000 -300 Level Salt Lake Center
12:21PM 42.8639 -113.9514 292° West 440 506 31,400 -1,260 Descending Salt Lake Center
12:22PM 42.9136 -114.1058 294° West 449 517 29,400 -2,040 Descending Salt Lake Center
12:23PM 42.9719 -114.2792 295° West 457 526 27,200 -2,040 Descending Salt Lake Center
12:24PM 43.0192 -114.4292 293° West 450 518 25,200 -1,860 Descending Salt Lake Center
12:25PM 43.0642 -114.5744 293° West 436 502 23,400 -1,800 Descending Salt Lake Center
12:26PM 43.1147 -114.7353 293° West 413 475 21,600 -1,680 Descending Salt Lake Center
12:27PM 43.1592 -114.8794 293° West 402 463 20,000 -1,620 Descending Salt Lake Center
12:28PM 43.2039 -115.0244 293° West 398 458 18,400 -1,500 Descending Salt Lake Center
12:30PM 43.2481 -115.1667 293° West 390 449 16,900 -1,500 Descending Salt Lake Center
12:31PM 43.2908 -115.3075 293° West 386 444 15,400 -1,440 Descending Salt Lake Center
12:32PM 43.3325 -115.4447 293° West 378 435 14,000 -1,200 Descending Salt Lake Center
12:33PM 43.3700 -115.5694 293° West 371 427 13,000 -780 Descending Salt Lake Center
12:34PM 43.4289 -115.6908 304° West 372 428 12,500 -1,020 Descending Salt Lake Center
12:35PM 43.4944 -115.7931 311° West 346 398 10,900 -1,500 Descending Salt Lake Center
12:36PM 43.5353 -115.8956 299° West 296 341 9,400 -1,440 Descending Salt Lake Center
12:37PM 43.5656 -115.9958 293° West 277 319 8,000 -720 Descending Salt Lake Center
12:38PM 43.5944 -116.0897 293° West 258 297 8,000 -60 Level Salt Lake Center
12:39PM 43.6208 -116.1797 292° West 245 282 7,900 -540 Descending Salt Lake Center
12:40PM 43.6461 -116.2608 293° West 225 259 6,900 -1,200 Descending Salt Lake Center
12:41PM 43.6444 -116.3200 268° West 182 209 5,500 -1,380 Descending Salt Lake Center